Terminal Aerodrome Forecast
Issued by NWS Indianapolis, IN

Home | Current Version | Previous Version | Text Only | Print | Product List | Glossary On
Versions: 1 2 3 4 5 6 7 8 9 10 11 12 13 14 15 16 17 18 19 20 21 22 23 24 25 26 27 28 29 30
690
FTUS43 KIND 270204 AAA
TAFIND
TAF AMD
KIND 270204Z 2702/2806 22006KT P6SM SKC
     FM271600 24014G23KT P6SM SKC
     FM272300 24010KT P6SM FEW250=

USA.gov is the U.S. government's official web portal to all federal, state and local government web resources and services.